Flugplatz Fritzlar Airport

Bericht für ETHF

vom 27.09. um 00:20 UTC

Wind 4 kt aus 200°

Sichtweite 10 km oder mehr

schwacher Sprühregen

gering bewölkt in 900 ft

aufgebrochene Bewölkung in 3500 ft

Temperatur 8.0°C

Taupunkt 6.0°C

Luftfeuchtigkeit 87%

Luftdruck 996 hPa

ETHF 270020Z 20004KT 9999 -DZ FEW009 BKN035 08/06 Q0996 BLU
Keine Prognose (TAF) verfügbar.
Impressum